Glenwood Plt, Maine
Current Conditions -  °F | °C
As of 4:53 PM on Friday 31 Oct 2014 (Local Time) from KHUL Reporting Station
Overcast Overcast  
Wind Chill: 42°   Ceiling: 5000
Heat Index: 44°   Visibility: 10mi
Dew Point: 31°   Wind: 5mph
Humidity: 60%   Direction: 50°NE
Pressure: 30.05"   Gusts: NA
Location:  45.7877°N, 68.0764°W
Report Text: KHUL 312053Z AUTO 05004KT 10SM OVC050 07/M01 A3005 RMK AO2 SLP181 T00671006 51009
Loading
Personal Weather Stations






























Interactive Weather Map
Tropical Storm Tracking
New forecast layout! Learn more

10-Day Weather Forecast

Advertisements
Track Severe Weather on mobile